Inglewood, Florida
Current Conditions -  °F | °C
As of 1:15 PM on Friday 28 Nov 2014 (Local Time) from KVNC Reporting Station
Clear Clear  
Wind Chill: 61°   Ceiling: Unl
Heat Index: 61°   Visibility: 10mi
Dew Point: 36°   Wind: 9mph
Humidity: 39%   Direction: 20°NNE
Pressure: 30.27"   Gusts: NA
Location:  26.9253°N, 82.3009°W
Report Text: KVNC 281815Z AUTO 02008KT 10SM CLR 16/02 A3027 RMK AO2 TSNO
Loading
Personal Weather Stations






























Interactive Weather Map New forecast layout! Learn more

10-Day Weather Forecast

Advertisements
Track Severe Weather on mobile